ORER/EBL METAR and TAF weather

Enter ICAO airport designator
Station Type Date Time Source
ORER METAR 2020/09/20 00:00 UTC NOAA

ORER 200000Z 12005KT CAVOK 25/06 Q1009 NOSIG


Station Type Date Time Source
ORER Decoded METAR 2020/09/20 00:00 UTC NOAA

Station name not available
Sep 19, 2020 - 08:00 PM EDT / 2020.09.20 0000 UTC
Wind: from the ESE (120 degrees) at 6 MPH (5 KT):0
Visibility: greater than 7 mile(s):0
Temperature: 77 F (25 C)
Dew Point: 42 F (6 C)
Relative Humidity: 29%
Pressure (altimeter): 29.80 in. Hg (1009 hPa)
ob: ORER 200000Z 12005KT CAVOK 25/06 Q1009 NOSIG
cycle: 0

Station Type Date Time Source
ORER TAF 2020/09/19 18:12 UTC NOAA

TAF ORER 191700Z 1918/2018 21004KT 8000 NSC
TEMPO 1919/2007 VRB03KT

Example: see airport list